Time;durP1;ratioP1;P1;durP2;ratioP2;P2;SDS_P1;SDS_P2;PMS_P1;PMS_P2;Temp;Humidity;BMP_temperature;BMP_pressure;BME280_temperature;BME280_humidity;BME280_pressure;Samples;Min_cycle;Max_cycle;Signal;HPM_P1;HPM_P2
2023/01/23 00:00:26;;;;;;;11.83;6.30;;;;;;;8.72;100.00;-24060.69;5086682;28;20273;-80
2023/01/23 00:02:51;;;;;;;16.27;7.80;;;;;;;8.30;100.00;-24048.94;5053292;28;20324;-79
2023/01/23 00:05:17;;;;;;;14.83;6.83;;;;;;;8.71;100.00;-24060.25;5054594;28;20276;-81
2023/01/23 00:07:43;;;;;;;14.93;6.90;;;;;;;8.92;100.00;-24066.06;5087259;28;20202;-80
2023/01/23 00:10:09;;;;;;;15.03;7.20;;;;;;;8.74;100.00;-24061.13;5054638;28;20267;-80
2023/01/23 00:12:34;;;;;;;23.13;6.60;;;;;;;8.84;100.00;-24064.09;5054587;28;20175;-81
2023/01/23 00:15:00;;;;;;;14.97;6.87;;;;;;;8.56;100.00;-24056.16;5086605;28;20190;-80
2023/01/23 00:17:26;;;;;;;17.97;5.70;;;;;;;8.58;100.00;-24056.59;5054571;28;20625;-80
2023/01/23 00:19:54;;;;;;;20.07;5.07;;;;;;;8.36;100.00;-24050.50;5054313;28;20206;-81
2023/01/23 00:22:20;;;;;;;10.20;6.00;;;;;;;8.62;100.00;-24057.72;5054805;28;20193;-80
2023/01/23 00:24:46;;;;;;;12.23;5.83;;;;;;;8.53;100.00;-24055.31;5052735;28;20654;-81
2023/01/23 00:27:11;;;;;;;18.20;5.90;;;;;;;8.59;100.00;-24057.00;5054235;28;20637;-81
2023/01/23 00:29:37;;;;;;;13.70;6.00;;;;;;;8.62;100.00;-24057.88;5060548;28;20216;-81
2023/01/23 00:32:02;;;;;;;22.07;6.67;;;;;;;8.85;100.00;-24064.38;5073919;28;20163;-81
2023/01/23 00:34:28;;;;;;;15.63;7.60;;;;;;;8.66;100.00;-24059.00;5073040;28;20181;-81
2023/01/23 00:36:53;;;;;;;12.90;6.30;;;;;;;8.36;100.00;-24050.50;5072562;28;20174;-81
2023/01/23 00:39:20;;;;;;;17.43;6.90;;;;;;;8.56;100.00;-24056.16;5072634;28;20178;-81
2023/01/23 00:41:47;;;;;;;24.90;6.97;;;;;;;8.77;100.00;-24062.09;5073901;28;20170;-81
2023/01/23 00:44:13;;;;;;;18.90;6.53;;;;;;;8.69;100.00;-24059.69;5072561;28;20201;-81
2023/01/23 00:46:39;;;;;;;14.57;7.93;;;;;;;8.72;100.00;-24060.69;5073897;28;20212;-81
2023/01/23 00:49:05;;;;;;;16.87;7.33;;;;;;;8.47;100.00;-24053.63;5072440;28;20202;-81
2023/01/23 00:51:30;;;;;;;16.60;7.10;;;;;;;8.61;100.00;-24057.56;5071810;28;20239;-81
2023/01/23 00:53:56;;;;;;;15.97;6.93;;;;;;;8.84;100.00;-24063.94;5073165;28;20193;-80
2023/01/23 00:56:22;;;;;;;12.90;6.40;;;;;;;8.70;100.00;-24060.13;5071636;28;20178;-81
2023/01/23 00:58:47;;;;;;;18.20;8.17;;;;;;;8.71;100.00;-24060.25;5072751;28;20178;-81
2023/01/23 01:01:14;;;;;;;14.93;6.60;;;;;;;8.54;100.00;-24055.59;5071804;28;20197;-82
2023/01/23 01:03:41;;;;;;;14.33;7.67;;;;;;;8.72;100.00;-24060.69;5073088;28;20173;-82
2023/01/23 01:06:07;;;;;;;12.57;6.00;;;;;;;8.63;100.00;-24058.16;5071141;28;20626;-81
2023/01/23 01:08:32;;;;;;;14.30;7.13;;;;;;;8.66;100.00;-24059.00;5070123;28;20209;-81
2023/01/23 01:10:58;;;;;;;15.70;6.87;;;;;;;8.57;100.00;-24056.31;5071335;28;20192;-81
2023/01/23 01:13:23;;;;;;;14.93;6.63;;;;;;;8.71;100.00;-24060.25;5073736;28;20173;-81
2023/01/23 01:15:52;;;;;;;13.57;6.37;;;;;;;8.68;100.00;-24059.56;5072043;28;20178;-80
2023/01/23 01:18:20;;;;;;;10.90;5.27;;;;;;;8.72;100.00;-24060.69;5071863;28;20589;-81
2023/01/23 01:20:45;;;;;;;13.73;5.50;;;;;;;8.41;100.00;-24051.91;5072128;28;20162;-81
2023/01/23 01:23:11;;;;;;;14.57;6.93;;;;;;;8.52;100.00;-24054.88;5072973;28;20227;-81
2023/01/23 01:25:37;;;;;;;12.87;6.63;;;;;;;8.74;100.00;-24061.13;5071288;28;20185;-81
2023/01/23 01:28:03;;;;;;;14.43;6.77;;;;;;;8.41;100.00;-24052.06;5072119;28;20184;-81
2023/01/23 01:30:29;;;;;;;29.00;6.27;;;;;;;8.63;100.00;-24058.16;5071601;28;20637;-81
2023/01/23 01:32:55;;;;;;;13.83;6.80;;;;;;;8.30;100.00;-24048.81;5071427;28;20170;-80
2023/01/23 01:35:21;;;;;;;16.67;7.53;;;;;;;8.77;100.00;-24062.09;5071636;28;20170;-80
2023/01/23 01:37:47;;;;;;;13.43;6.37;;;;;;;8.36;100.00;-24050.50;5071484;28;20166;-80
2023/01/23 01:40:16;;;;;;;13.13;6.07;;;;;;;8.12;100.00;-24043.84;5071811;28;20257;-81
2023/01/23 01:42:46;;;;;;;14.23;7.33;;;;;;;8.78;100.00;-24062.38;5072250;28;20276;-83
2023/01/23 01:45:49;;;;;;;11.70;6.13;;;;;;;8.91;100.00;-24065.78;5073183;28;20185;-81
2023/01/23 01:48:16;;;;;;;12.10;6.50;;;;;;;8.89;100.00;-24065.34;5071648;28;20177;-81
2023/01/23 01:50:42;;;;;;;16.07;7.47;;;;;;;8.66;100.00;-24059.00;5070870;28;20366;-81
2023/01/23 01:53:08;;;;;;;14.03;6.63;;;;;;;8.71;100.00;-24060.25;5071381;28;20162;-82
2023/01/23 01:55:34;;;;;;;11.90;6.53;;;;;;;8.65;100.00;-24058.56;5071738;28;20722;-82
2023/01/23 01:57:59;;;;;;;14.00;6.43;;;;;;;8.44;100.00;-24052.78;5072846;28;20212;-81
2023/01/23 02:00:25;;;;;;;17.80;7.53;;;;;;;8.60;100.00;-24057.16;5071250;28;20589;-81
2023/01/23 02:02:54;;;;;;;10.97;6.70;;;;;;;8.71;100.00;-24060.41;5071317;28;20260;-84
2023/01/23 02:05:28;;;;;;;12.20;6.60;;;;;;;8.69;100.00;-24059.69;5070738;28;20286;-82
2023/01/23 02:08:04;;;;;;;12.47;6.20;;;;;;;8.65;100.00;-24058.72;5070726;28;20186;-82
2023/01/23 02:10:31;;;;;;;14.73;6.47;;;;;;;8.74;100.00;-24061.25;5072183;28;20178;-82
2023/01/23 02:13:22;;;;;;;16.20;8.00;;;;;;;8.86;100.00;-24064.66;5071028;28;20182;-82
2023/01/23 02:15:48;;;;;;;12.53;7.07;;;;;;;8.65;100.00;-24058.56;5070574;28;20269;-82
2023/01/23 02:18:13;;;;;;;15.13;7.27;;;;;;;8.68;100.00;-24059.56;5071221;28;20257;-82
2023/01/23 02:20:39;;;;;;;20.03;6.40;;;;;;;8.49;100.00;-24054.03;5070483;28;20193;-81
2023/01/23 02:23:05;;;;;;;14.53;6.43;;;;;;;8.85;100.00;-24064.22;5069700;28;20188;-81
2023/01/23 02:25:50;;;;;;;13.80;7.20;;;;;;;8.76;100.00;-24061.69;5071038;28;20186;-81
2023/01/23 02:28:16;;;;;;;18.37;6.57;;;;;;;8.60;100.00;-24057.28;5070853;28;20189;-81
2023/01/23 02:30:45;;;;;;;12.33;6.13;;;;;;;8.38;100.00;-24051.22;5072586;28;20170;-81
2023/01/23 02:33:20;;;;;;;14.07;7.20;;;;;;;8.79;100.00;-24062.66;5070870;28;20383;-81
2023/01/23 02:35:46;;;;;;;11.67;7.10;;;;;;;8.36;100.00;-24050.50;5070554;28;20239;-81
2023/01/23 02:38:12;;;;;;;13.73;7.40;;;;;;;8.37;100.00;-24050.94;5070796;28;20177;-82
2023/01/23 02:40:40;;;;;;;11.93;5.90;;;;;;;8.61;100.00;-24057.44;5070474;28;20251;-81
2023/01/23 02:43:10;;;;;;;16.30;6.63;;;;;;;8.43;100.00;-24052.47;5071965;28;20242;-81
2023/01/23 02:45:36;;;;;;;11.23;5.97;;;;;;;8.55;100.00;-24055.75;5073121;28;20184;-82
2023/01/23 02:48:04;;;;;;;15.83;5.77;;;;;;;8.71;100.00;-24060.25;5092418;28;20197;-81
2023/01/23 02:50:30;;;;;;;11.40;5.60;;;;;;;8.36;100.00;-24050.50;5080598;28;20182;-81
2023/01/23 02:52:57;;;;;;;11.20;6.03;;;;;;;8.52;100.00;-24055.03;5071971;28;20212;-81
2023/01/23 02:55:25;;;;;;;13.57;5.73;;;;;;;8.46;100.00;-24053.19;5070773;28;20209;-82
2023/01/23 02:57:51;;;;;;;13.90;5.67;;;;;;;8.31;100.00;-24049.09;5072389;28;20162;-81
2023/01/23 03:00:21;;;;;;;18.03;6.37;;;;;;;8.52;100.00;-24055.03;5070776;28;20166;-81
2023/01/23 03:02:48;;;;;;;7.73;5.17;;;;;;;8.76;100.00;-24061.69;5072010;28;20211;-82
2023/01/23 03:05:14;;;;;;;12.60;5.97;;;;;;;8.49;100.00;-24054.03;5071653;28;20266;-82
2023/01/23 03:07:40;;;;;;;15.20;5.97;;;;;;;8.45;100.00;-24053.06;5071967;28;20174;-82
2023/01/23 03:10:09;;;;;;;21.63;6.57;;;;;;;8.63;100.00;-24058.00;5070467;28;20214;-82
2023/01/23 03:12:38;;;;;;;21.47;6.53;;;;;;;8.56;100.00;-24056.16;5070523;28;20243;-83
2023/01/23 03:15:05;;;;;;;10.73;5.87;;;;;;;8.63;100.00;-24058.00;5072023;28;20178;-83
2023/01/23 03:17:31;;;;;;;10.17;5.63;;;;;;;8.43;100.00;-24052.63;5070559;28;20174;-83
2023/01/23 03:19:57;;;;;;;11.90;5.93;;;;;;;8.27;100.00;-24048.09;5071947;28;20174;-82
2023/01/23 03:22:23;;;;;;;11.80;6.87;;;;;;;8.61;100.00;-24057.56;5071435;28;20182;-82
2023/01/23 03:24:48;;;;;;;12.57;6.30;;;;;;;8.72;100.00;-24060.56;5070522;28;20174;-82
2023/01/23 03:27:14;;;;;;;11.63;6.13;;;;;;;8.67;100.00;-24059.28;5069425;28;20210;-82
2023/01/23 03:32:24;;;;;;;11.00;5.83;;;;;;;8.48;100.00;-24053.75;5070897;28;20197;-82
2023/01/23 03:34:50;;;;;;;17.20;5.87;;;;;;;8.59;100.00;-24057.00;5072266;28;20268;-81
2023/01/23 03:37:18;;;;;;;12.23;5.30;;;;;;;8.28;100.00;-24048.38;5074080;28;20621;-81
2023/01/23 03:42:43;;;;;;;11.33;6.03;;;;;;;8.56;100.00;-24056.03;5062847;28;20193;-81
2023/01/23 03:45:08;;;;;;;13.53;6.43;;;;;;;8.44;100.00;-24052.78;5075071;28;20700;-80
2023/01/23 03:47:34;;;;;;;26.63;7.57;;;;;;;8.46;100.00;-24053.34;5075320;28;20171;-82
2023/01/23 03:50:00;;;;;;;15.20;5.87;;;;;;;8.32;100.00;-24049.38;5073750;28;20209;-82
2023/01/23 03:52:25;;;;;;;10.93;6.20;;;;;;;8.36;100.00;-24050.66;5073430;28;20186;-81
2023/01/23 03:54:50;;;;;;;11.67;5.83;;;;;;;7.97;100.00;-24039.72;5073694;28;20178;-81
2023/01/23 03:57:17;;;;;;;17.80;5.97;;;;;;;8.33;100.00;-24049.66;5073405;28;20247;-81
2023/01/23 03:59:43;;;;;;;12.13;5.63;;;;;;;8.15;100.00;-24044.56;5073130;28;20178;-81
2023/01/23 04:02:09;;;;;;;19.10;5.87;;;;;;;8.45;100.00;-24052.91;5073169;28;20185;-82
2023/01/23 04:04:35;;;;;;;14.47;6.33;;;;;;;8.34;100.00;-24049.94;5073488;28;20209;-82
2023/01/23 04:07:01;;;;;;;18.37;6.40;;;;;;;7.85;100.00;-24036.34;5073544;28;20283;-82
2023/01/23 04:09:27;;;;;;;18.13;6.33;;;;;;;7.95;100.00;-24039.03;5072572;28;20205;-82
2023/01/23 04:11:58;;;;;;;11.57;5.43;;;;;;;8.19;100.00;-24045.81;5072941;28;20181;-82
2023/01/23 04:14:25;;;;;;;11.30;6.20;;;;;;;8.16;100.00;-24044.84;5072204;28;20181;-81
2023/01/23 04:16:51;;;;;;;15.43;7.20;;;;;;;8.12;100.00;-24043.84;5073742;28;20181;-82
2023/01/23 04:19:20;;;;;;;11.60;7.07;;;;;;;8.11;100.00;-24043.41;5072691;28;20257;-81
2023/01/23 04:21:47;;;;;;;13.03;7.03;;;;;;;7.84;100.00;-24036.06;5072529;28;20178;-81
2023/01/23 04:24:13;;;;;;;11.53;6.20;;;;;;;7.90;100.00;-24037.75;5065866;28;20197;-81
2023/01/23 04:26:38;;;;;;;13.77;5.57;;;;;;;8.04;100.00;-24041.44;5065984;28;20178;-81
2023/01/23 04:29:04;;;;;;;11.50;6.67;;;;;;;7.63;100.00;-24029.97;5065759;28;20698;-81
2023/01/23 04:31:30;;;;;;;13.43;6.37;;;;;;;8.15;100.00;-24044.69;5067699;28;20170;-81
2023/01/23 04:33:55;;;;;;;22.10;8.00;;;;;;;7.80;100.00;-24034.78;5066639;28;20182;-80
2023/01/23 04:36:21;;;;;;;10.90;5.73;;;;;;;7.51;100.00;-24026.84;5067042;28;20178;-80
2023/01/23 04:38:46;;;;;;;14.73;6.40;;;;;;;7.71;100.00;-24032.22;5066270;28;20182;-80
2023/01/23 04:41:24;;;;;;;13.03;5.87;;;;;;;7.81;100.00;-24035.22;5066165;28;20648;-80
2023/01/23 04:43:50;;;;;;;10.63;5.70;;;;;;;7.81;100.00;-24035.22;5100186;28;20181;-81
2023/01/23 04:46:15;;;;;;;14.63;7.37;;;;;;;7.93;100.00;-24038.59;5066206;28;20638;-80
2023/01/23 04:48:41;;;;;;;17.80;6.53;;;;;;;7.84;100.00;-24036.06;5067130;28;20197;-81
2023/01/23 04:51:06;;;;;;;11.30;5.67;;;;;;;7.96;100.00;-24039.44;5058356;28;20747;-80
2023/01/23 04:53:33;;;;;;;15.80;6.30;;;;;;;7.79;100.00;-24034.50;5075615;28;20641;-81
2023/01/23 04:55:58;;;;;;;13.63;6.30;;;;;;;7.91;100.00;-24038.03;5066092;28;20220;-82
2023/01/23 04:58:24;;;;;;;12.60;5.60;;;;;;;7.84;100.00;-24035.91;5065177;28;20214;-81
2023/01/23 05:00:49;;;;;;;13.63;5.13;;;;;;;7.78;100.00;-24034.34;5066213;28;20568;-80
2023/01/23 05:03:15;;;;;;;14.33;5.53;;;;;;;7.82;100.00;-24035.34;5065550;28;20190;-81
2023/01/23 05:05:43;;;;;;;9.20;4.90;;;;;;;7.73;100.00;-24032.78;5064054;28;20255;-81
2023/01/23 05:08:09;;;;;;;21.03;8.07;;;;;;;7.72;100.00;-24032.50;5065194;28;20649;-80
2023/01/23 05:10:35;;;;;;;26.13;6.83;;;;;;;7.72;100.00;-24032.66;5064902;28;20661;-81
2023/01/23 05:13:01;;;;;;;11.17;5.97;;;;;;;7.76;100.00;-24033.78;5064158;28;20196;-81
2023/01/23 05:15:26;;;;;;;18.37;5.77;;;;;;;7.88;100.00;-24037.03;5064963;28;20607;-81
2023/01/23 05:17:52;;;;;;;9.43;5.60;;;;;;;7.15;100.00;-24016.50;5066959;28;22064;-80
2023/01/23 05:20:19;;;;;;;11.00;4.67;;;;;;;7.57;100.00;-24028.25;5072648;28;20286;-79
2023/01/23 05:22:53;;;;;;;10.97;5.47;;;;;;;7.22;100.00;-24018.63;5071117;28;20186;-81
2023/01/23 05:25:25;;;;;;;11.80;6.60;;;;;;;7.57;100.00;-24028.25;5070268;28;20186;-83
2023/01/23 05:27:51;;;;;;;13.73;4.80;;;;;;;7.63;100.00;-24030.09;5072077;28;20194;-80
2023/01/23 05:30:20;;;;;;;12.93;5.20;;;;;;;7.53;100.00;-24027.28;5071352;28;20719;-81
2023/01/23 05:32:46;;;;;;;19.77;6.80;;;;;;;7.57;100.00;-24028.25;5070629;28;20186;-80
2023/01/23 05:35:11;;;;;;;19.10;5.20;;;;;;;7.45;100.00;-24025.13;5072100;28;20173;-81
2023/01/23 05:37:37;;;;;;;14.13;6.43;;;;;;;7.78;100.00;-24034.34;5071185;28;20169;-80
2023/01/23 05:40:03;;;;;;;9.77;6.03;;;;;;;7.57;100.00;-24028.25;5070878;28;20189;-80
2023/01/23 05:42:28;;;;;;;13.07;6.27;;;;;;;7.58;100.00;-24028.53;5071101;28;20660;-81
2023/01/23 05:44:54;;;;;;;10.53;5.33;;;;;;;7.70;100.00;-24032.09;5071911;28;20166;-83
2023/01/23 05:47:19;;;;;;;14.07;4.83;;;;;;;7.33;100.00;-24021.59;5070833;28;20177;-81
2023/01/23 05:49:45;;;;;;;9.10;5.27;;;;;;;7.42;100.00;-24024.16;5070481;28;20250;-82
2023/01/23 05:52:11;;;;;;;15.53;6.00;;;;;;;7.68;100.00;-24031.53;5071584;28;20261;-82
2023/01/23 05:54:36;;;;;;;17.03;6.40;;;;;;;7.47;100.00;-24025.72;5070567;28;20196;-81
2023/01/23 05:57:02;;;;;;;11.90;6.60;;;;;;;7.68;100.00;-24031.38;5070567;28;20562;-84
2023/01/23 05:59:27;;;;;;;8.73;5.17;;;;;;;7.54;100.00;-24027.69;5071823;28;20251;-82
2023/01/23 06:01:52;;;;;;;10.20;5.00;;;;;;;7.51;100.00;-24026.69;5072711;28;20327;-82
2023/01/23 06:04:18;;;;;;;13.97;5.53;;;;;;;7.36;100.00;-24022.44;5071341;28;20553;-81
2023/01/23 06:06:43;;;;;;;15.20;5.23;;;;;;;7.58;100.00;-24028.53;5070451;28;20628;-82
2023/01/23 06:09:10;;;;;;;24.20;5.57;;;;;;;7.36;100.00;-24022.44;5071228;28;20201;-81
2023/01/23 06:11:35;;;;;;;30.37;5.60;;;;;;;7.32;100.00;-24021.47;5071627;28;20696;-81
2023/01/23 06:14:01;;;;;;;15.57;6.00;;;;;;;7.53;100.00;-24027.28;5069912;28;20261;-83
2023/01/23 06:16:26;;;;;;;13.47;6.10;;;;;;;7.51;100.00;-24026.69;5070668;28;20209;-85
2023/01/23 06:18:52;;;;;;;11.03;5.60;;;;;;;7.57;100.00;-24028.25;5070308;28;20174;-82
2023/01/23 06:21:17;;;;;;;13.43;6.30;;;;;;;7.44;100.00;-24024.88;5070358;28;20197;-83
2023/01/23 06:23:44;;;;;;;10.83;4.77;;;;;;;7.49;100.00;-24026.28;5069952;28;20181;-83
2023/01/23 06:26:11;;;;;;;15.00;6.17;;;;;;;7.68;100.00;-24031.38;5070377;28;20716;-82
2023/01/23 06:28:36;;;;;;;12.03;4.70;;;;;;;7.46;100.00;-24025.44;5070483;28;20185;-84
2023/01/23 06:31:03;;;;;;;11.03;5.93;;;;;;;7.52;100.00;-24026.97;5070532;28;20269;-83
2023/01/23 06:33:29;;;;;;;11.63;5.23;;;;;;;7.79;100.00;-24034.63;5070397;28;20192;-83
2023/01/23 06:35:59;;;;;;;9.57;4.77;;;;;;;7.63;100.00;-24029.97;5071745;28;20174;-85
2023/01/23 06:38:25;;;;;;;15.73;5.40;;;;;;;7.70;100.00;-24032.09;5071642;28;20599;-82
2023/01/23 06:40:51;;;;;;;7.10;4.77;;;;;;;7.71;100.00;-24032.22;5071529;28;20265;-83
2023/01/23 06:43:16;;;;;;;10.30;5.73;;;;;;;7.55;100.00;-24027.97;5070554;28;20280;-83
2023/01/23 06:45:45;;;;;;;8.07;4.50;;;;;;;7.82;100.00;-24035.47;5070329;28;20604;-84
2023/01/23 06:48:11;;;;;;;12.63;5.23;;;;;;;7.54;100.00;-24027.56;5069876;28;20208;-85
2023/01/23 06:50:37;;;;;;;8.93;4.63;;;;;;;7.39;100.00;-24023.44;5069776;28;20183;-82
2023/01/23 06:53:04;;;;;;;13.47;5.07;;;;;;;7.71;100.00;-24032.38;5070241;28;20190;-84
2023/01/23 06:55:30;;;;;;;14.37;5.23;;;;;;;7.61;100.00;-24029.53;5068991;28;20174;-82
2023/01/23 06:57:55;;;;;;;9.73;4.00;;;;;;;7.64;100.00;-24030.38;5067547;28;20675;-83
2023/01/23 07:00:21;;;;;;;8.83;4.47;;;;;;;7.60;100.00;-24029.09;5069881;28;20273;-83
2023/01/23 07:02:46;;;;;;;10.47;4.93;;;;;;;7.73;100.00;-24032.78;5069568;28;20568;-85
2023/01/23 07:05:12;;;;;;;8.60;4.23;;;;;;;7.20;100.00;-24018.06;5069557;28;20309;-85
2023/01/23 07:07:37;;;;;;;8.83;5.27;;;;;;;7.80;100.00;-24034.78;5070567;28;20184;-82
2023/01/23 07:10:03;;;;;;;11.50;4.47;;;;;;;7.75;100.00;-24033.50;5073324;28;20194;-81
2023/01/23 07:12:28;;;;;;;14.80;5.43;;;;;;;7.79;100.00;-24034.50;5073774;28;20710;-83
2023/01/23 07:14:54;;;;;;;9.93;5.70;;;;;;;7.70;100.00;-24032.09;5075484;28;20178;-83
2023/01/23 07:17:20;;;;;;;8.70;4.97;;;;;;;7.52;100.00;-24026.97;5074107;28;20170;-80
2023/01/23 07:19:45;;;;;;;8.23;4.53;;;;;;;7.81;100.00;-24035.06;5073776;28;20205;-79
2023/01/23 07:22:10;;;;;;;9.07;3.97;;;;;;;7.65;100.00;-24030.53;5074997;28;20224;-81
2023/01/23 07:24:36;;;;;;;7.50;4.60;;;;;;;7.85;100.00;-24036.34;5073551;28;20174;-83
2023/01/23 07:27:01;;;;;;;8.47;4.40;;;;;;;7.73;100.00;-24032.78;5073839;28;20226;-81
2023/01/23 07:29:27;;;;;;;10.07;5.20;;;;;;;7.83;100.00;-24035.63;5073495;28;20284;-82
2023/01/23 07:31:52;;;;;;;7.13;3.90;;;;;;;7.73;100.00;-24032.78;5073502;28;20184;-81
2023/01/23 07:34:18;;;;;;;14.83;5.43;;;;;;;7.70;100.00;-24032.09;5073680;28;20596;-82
2023/01/23 07:36:43;;;;;;;10.10;4.97;;;;;;;7.72;100.00;-24032.66;5073520;28;20178;-82
2023/01/23 07:39:09;;;;;;;6.33;3.73;;;;;;;7.89;100.00;-24037.47;5073926;28;20166;-83
2023/01/23 07:41:34;;;;;;;8.83;5.07;;;;;;;7.83;100.00;-24035.63;5075590;28;20154;-80
2023/01/23 07:43:59;;;;;;;8.10;4.73;;;;;;;7.99;100.00;-24040.16;5075017;28;20532;-82
2023/01/23 07:46:25;;;;;;;8.17;4.40;;;;;;;7.90;100.00;-24037.75;5073665;28;20178;-83
2023/01/23 07:48:51;;;;;;;7.77;4.20;;;;;;;7.96;100.00;-24039.44;5075006;28;20568;-82
2023/01/23 07:51:17;;;;;;;10.43;4.27;;;;;;;7.84;100.00;-24035.91;5073342;28;20675;-82
2023/01/23 07:53:42;;;;;;;10.10;4.60;;;;;;;7.96;100.00;-24039.44;5073482;28;20173;-82
2023/01/23 07:56:08;;;;;;;11.83;5.50;;;;;;;7.82;100.00;-24035.34;5073181;28;20184;-82
2023/01/23 07:58:33;;;;;;;11.60;5.30;;;;;;;7.85;100.00;-24036.19;5073586;28;20178;-82
2023/01/23 08:00:59;;;;;;;8.10;4.87;;;;;;;7.85;100.00;-24036.34;5071956;28;20224;-82
2023/01/23 08:03:27;;;;;;;7.50;5.07;;;;;;;7.88;100.00;-24037.03;5072012;28;20189;-82
2023/01/23 08:05:53;;;;;;;8.03;4.63;;;;;;;7.75;100.00;-24033.38;5072609;28;20236;-82
2023/01/23 08:08:18;;;;;;;9.57;4.23;;;;;;;7.79;100.00;-24034.50;5072668;28;20185;-81
2023/01/23 08:10:44;;;;;;;13.07;5.43;;;;;;;7.90;100.00;-24037.75;5073410;28;20601;-83
2023/01/23 08:13:10;;;;;;;13.87;5.77;;;;;;;8.10;100.00;-24043.13;5073020;28;20629;-82
2023/01/23 08:15:37;;;;;;;7.90;4.70;;;;;;;8.02;100.00;-24041.00;5073529;28;20182;-81
2023/01/23 08:18:03;;;;;;;8.53;4.33;;;;;;;8.06;100.00;-24042.16;5074091;28;20216;-82
2023/01/23 08:20:29;;;;;;;12.07;5.57;;;;;;;8.08;100.00;-24042.72;5071891;28;20206;-81
2023/01/23 08:22:55;;;;;;;10.93;5.20;;;;;;;8.07;100.00;-24042.28;5072807;28;20563;-82
2023/01/23 08:25:20;;;;;;;7.87;4.73;;;;;;;8.10;100.00;-24043.13;5068431;28;20178;-81
2023/01/23 08:27:46;;;;;;;7.93;4.20;;;;;;;7.88;100.00;-24037.19;5069150;28;20258;-81
2023/01/23 08:30:12;;;;;;;12.57;6.33;;;;;;;7.96;100.00;-24039.44;5071456;28;20217;-81
2023/01/23 08:32:37;;;;;;;7.73;4.07;;;;;;;8.11;100.00;-24043.41;5069981;28;20206;-81
2023/01/23 08:35:03;;;;;;;9.53;4.87;;;;;;;7.71;100.00;-24032.38;5071725;28;20612;-81
2023/01/23 08:37:29;;;;;;;11.50;5.40;;;;;;;8.13;100.00;-24044.00;5071295;28;20209;-81
2023/01/23 08:39:55;;;;;;;7.43;4.63;;;;;;;8.11;100.00;-24043.41;5072331;28;20229;-81
2023/01/23 08:42:20;;;;;;;10.87;5.20;;;;;;;7.61;100.00;-24029.53;5071596;28;20729;-81
2023/01/23 08:44:45;;;;;;;9.57;5.23;;;;;;;8.12;100.00;-24043.69;5072301;28;20166;-81
2023/01/23 08:47:11;;;;;;;14.33;5.07;;;;;;;8.06;100.00;-24042.00;5071997;28;20259;-82
2023/01/23 08:49:36;;;;;;;13.67;5.43;;;;;;;7.52;100.00;-24026.97;5073388;28;20194;-83
2023/01/23 08:52:04;;;;;;;16.17;5.70;;;;;;;7.88;100.00;-24037.19;5071775;28;20232;-81
2023/01/23 08:54:29;;;;;;;8.13;4.77;;;;;;;7.94;100.00;-24038.75;5072013;28;20235;-81
2023/01/23 08:56:55;;;;;;;7.87;5.17;;;;;;;7.96;100.00;-24039.44;5072224;28;20633;-80
2023/01/23 08:59:21;;;;;;;12.80;6.37;;;;;;;7.98;100.00;-24039.88;5073261;28;20665;-81
2023/01/23 09:01:46;;;;;;;10.97;4.53;;;;;;;7.95;100.00;-24039.16;5072093;28;20174;-81
2023/01/23 09:04:13;;;;;;;8.13;4.03;;;;;;;7.92;100.00;-24038.31;5071925;28;20185;-81
2023/01/23 09:06:38;;;;;;;9.30;4.97;;;;;;;8.10;100.00;-24043.28;5071449;28;20364;-81
2023/01/23 09:09:04;;;;;;;20.40;5.50;;;;;;;7.89;100.00;-24037.47;5071767;28;20233;-81
2023/01/23 09:11:29;;;;;;;15.10;4.63;;;;;;;8.23;100.00;-24046.97;5073837;28;20182;-81
2023/01/23 09:13:55;;;;;;;15.30;6.07;;;;;;;8.29;100.00;-24048.50;5072785;28;20238;-81
2023/01/23 09:16:20;;;;;;;11.23;5.03;;;;;;;8.24;100.00;-24047.25;5071392;28;20181;-82
2023/01/23 09:18:46;;;;;;;12.60;5.77;;;;;;;8.18;100.00;-24045.41;5071515;28;20675;-80
2023/01/23 09:21:14;;;;;;;9.70;4.37;;;;;;;8.28;100.00;-24048.22;5071341;28;20177;-80
2023/01/23 09:23:40;;;;;;;11.90;5.40;;;;;;;7.97;100.00;-24039.59;5072929;28;20180;-84
2023/01/23 09:26:09;;;;;;;12.97;5.23;;;;;;;8.11;100.00;-24043.41;5072115;28;20174;-80
2023/01/23 09:28:35;;;;;;;13.07;5.63;;;;;;;8.53;100.00;-24055.31;5071566;28;20242;-80
2023/01/23 09:31:03;;;;;;;7.83;4.63;;;;;;;8.53;100.00;-24055.31;5072589;28;20174;-80
2023/01/23 09:33:29;;;;;;;9.33;4.43;;;;;;;8.21;100.00;-24046.25;5071237;28;20629;-81
2023/01/23 09:35:54;;;;;;;8.73;5.30;;;;;;;8.30;100.00;-24048.81;5071185;28;20185;-80
2023/01/23 09:38:20;;;;;;;8.57;5.23;;;;;;;8.42;100.00;-24052.34;5071364;28;20175;-81
2023/01/23 09:40:52;;;;;;;7.97;5.40;;;;;;;7.96;100.00;-24039.31;5071271;28;20181;-81
2023/01/23 09:43:29;;;;;;;13.07;4.70;;;;;;;8.46;100.00;-24053.34;5071168;28;20699;-82
2023/01/23 09:46:10;;;;;;;9.20;4.77;;;;;;;8.44;100.00;-24052.78;5070838;28;20259;-81
2023/01/23 09:48:46;;;;;;;9.60;5.70;;;;;;;8.51;100.00;-24054.75;5071614;28;20211;-80
2023/01/23 09:51:14;;;;;;;11.67;5.47;;;;;;;8.45;100.00;-24053.06;5072304;28;20178;-81
2023/01/23 09:53:41;;;;;;;10.20;6.00;;;;;;;8.33;100.00;-24049.78;5070997;28;20713;-82
2023/01/23 09:56:22;;;;;;;10.93;4.87;;;;;;;8.27;100.00;-24048.09;5070931;28;20270;-82
2023/01/23 09:59:22;;;;;;;12.30;5.40;;;;;;;8.51;100.00;-24054.75;5070890;28;20717;-81
2023/01/23 10:01:48;;;;;;;7.20;3.50;;;;;;;8.35;100.00;-24050.22;5063587;28;20692;-81
2023/01/23 10:04:17;;;;;;;6.47;3.70;;;;;;;8.44;100.00;-24052.78;5071084;28;20185;-82
2023/01/23 10:07:04;;;;;;;8.43;4.60;;;;;;;8.60;100.00;-24057.28;5070427;28;20233;-81
2023/01/23 10:09:39;;;;;;;16.30;5.57;;;;;;;8.65;100.00;-24058.56;5071590;28;20220;-81
2023/01/23 10:12:30;;;;;;;6.80;4.40;;;;;;;8.80;100.00;-24062.94;5072759;28;20182;-81
2023/01/23 10:15:11;;;;;;;16.17;5.90;;;;;;;8.86;100.00;-24064.66;5071969;28;20559;-81
2023/01/23 10:17:55;;;;;;;10.60;5.00;;;;;;;8.98;100.00;-24067.75;5070660;28;20247;-80
2023/01/23 10:20:45;;;;;;;8.13;4.10;;;;;;;8.95;100.00;-24067.06;5070092;28;20188;-82
2023/01/23 10:23:39;;;;;;;7.47;4.43;;;;;;;8.77;100.00;-24062.09;5066662;28;20560;-80
2023/01/23 10:26:13;;;;;;;18.73;5.03;;;;;;;8.66;100.00;-24059.00;5068623;28;20177;-80
2023/01/23 10:28:40;;;;;;;6.83;4.57;;;;;;;8.55;100.00;-24055.88;5070055;28;20212;-83
2023/01/23 10:31:19;;;;;;;10.97;4.73;;;;;;;8.24;100.00;-24047.09;5050162;28;20198;-82
2023/01/23 10:34:08;;;;;;;13.07;4.33;;;;;;;8.56;100.00;-24056.16;5049596;28;20186;-81
2023/01/23 10:37:08;;;;;;;8.13;4.23;;;;;;;8.77;100.00;-24062.09;5047778;28;20194;-81
2023/01/23 10:39:59;;;;;;;10.77;4.47;;;;;;;8.28;100.00;-24048.22;5050245;28;20179;-82
2023/01/23 10:42:26;;;;;;;12.00;4.93;;;;;;;8.59;100.00;-24057.00;5048818;28;20208;-82
2023/01/23 10:44:51;;;;;;;9.50;4.30;;;;;;;8.82;100.00;-24063.38;5049494;28;20610;-82
2023/01/23 10:47:26;;;;;;;7.47;4.53;;;;;;;8.40;100.00;-24051.63;5050240;28;20174;-82
2023/01/23 10:49:52;;;;;;;17.17;5.30;;;;;;;8.87;100.00;-24064.78;5051207;28;20627;-82
2023/01/23 10:52:41;;;;;;;10.80;5.13;;;;;;;9.01;100.00;-24068.75;5050258;28;20300;-83
2023/01/23 10:55:44;;;;;;;12.33;5.00;;;;;;;8.81;100.00;-24063.09;5049397;28;20669;-80
2023/01/23 10:58:27;;;;;;;7.50;4.90;;;;;;;8.74;100.00;-24061.25;5040325;28;20186;-80
2023/01/23 11:00:52;;;;;;;11.07;5.37;;;;;;;8.38;100.00;-24051.22;5050218;28;20239;-80
2023/01/23 11:03:21;;;;;;;15.07;4.50;;;;;;;8.42;100.00;-24052.19;5049542;28;20649;-80
2023/01/23 11:05:51;;;;;;;7.73;4.47;;;;;;;8.59;100.00;-24057.00;5050356;28;20422;-81
2023/01/23 11:08:26;;;;;;;7.10;4.50;;;;;;;8.42;100.00;-24052.19;5051141;28;20191;-83
2023/01/23 11:10:53;;;;;;;10.30;5.50;;;;;;;8.46;100.00;-24053.19;5050034;28;20186;-81
2023/01/23 11:13:29;;;;;;;9.50;5.40;;;;;;;8.65;100.00;-24058.72;5049869;28;20223;-82
2023/01/23 11:15:56;;;;;;;12.67;6.37;;;;;;;8.38;100.00;-24051.22;5051442;28;20584;-82
2023/01/23 11:18:31;;;;;;;12.07;5.90;;;;;;;8.20;100.00;-24046.09;5050063;28;20650;-81
2023/01/23 11:20:56;;;;;;;11.57;6.53;;;;;;;8.41;100.00;-24051.91;5051726;28;20265;-81
2023/01/23 11:23:22;;;;;;;10.27;5.63;;;;;;;8.48;100.00;-24053.91;5050020;28;20181;-81
2023/01/23 11:25:49;;;;;;;12.90;4.87;;;;;;;8.47;100.00;-24053.63;5056632;28;20712;-83
2023/01/23 11:28:32;;;;;;;8.73;5.30;;;;;;;8.39;100.00;-24051.50;5071158;28;20186;-81